sensor_id;sensor_type;location;lat;lon;timestamp;pressure;altitude;pressure_sealevel;temperature
75658;BMP280;64255;49.892;17.884;2023-02-16T00:01:58;99642.47;;;0.59
75658;BMP280;64255;49.892;17.884;2023-02-16T00:04:29;99643.16;;;0.52
75658;BMP280;64255;49.892;17.884;2023-02-16T00:06:57;99644.63;;;0.50
75658;BMP280;64255;49.892;17.884;2023-02-16T00:09:24;99642.72;;;0.46
75658;BMP280;64255;49.892;17.884;2023-02-16T00:11:52;99652.88;;;0.48
75658;BMP280;64255;49.892;17.884;2023-02-16T00:14:21;99639.34;;;0.50
75658;BMP280;64255;49.892;17.884;2023-02-16T00:16:49;99634.72;;;0.39
75658;BMP280;64255;49.892;17.884;2023-02-16T00:19:24;99629.84;;;0.41
75658;BMP280;64255;49.892;17.884;2023-02-16T00:21:57;99618.91;;;0.39
75658;BMP280;64255;49.892;17.884;2023-02-16T00:24:28;99618.94;;;0.43
75658;BMP280;64255;49.892;17.884;2023-02-16T00:26:57;99624.91;;;0.33
75658;BMP280;64255;49.892;17.884;2023-02-16T00:29:31;99615.09;;;0.33
75658;BMP280;64255;49.892;17.884;2023-02-16T00:32:01;99613.56;;;0.28
75658;BMP280;64255;49.892;17.884;2023-02-16T00:34:36;99617.38;;;0.35
75658;BMP280;64255;49.892;17.884;2023-02-16T00:37:10;99615.84;;;0.30
75658;BMP280;64255;49.892;17.884;2023-02-16T00:39:40;99608.66;;;0.27
75658;BMP280;64255;49.892;17.884;2023-02-16T00:42:31;99601.94;;;0.29
75658;BMP280;64255;49.892;17.884;2023-02-16T00:45:00;99600.00;;;0.26
75658;BMP280;64255;49.892;17.884;2023-02-16T00:47:36;99589.47;;;0.26
75658;BMP280;64255;49.892;17.884;2023-02-16T00:50:18;99598.06;;;0.20
75658;BMP280;64255;49.892;17.884;2023-02-16T00:52:47;99600.66;;;0.16
75658;BMP280;64255;49.892;17.884;2023-02-16T00:55:18;99603.38;;;0.27
75658;BMP280;64255;49.892;17.884;2023-02-16T00:57:58;99597.38;;;0.26
75658;BMP280;64255;49.892;17.884;2023-02-16T01:00:45;99604.47;;;0.22
75658;BMP280;64255;49.892;17.884;2023-02-16T01:03:22;99608.63;;;0.23
75658;BMP280;64255;49.892;17.884;2023-02-16T01:05:51;99602.22;;;0.24
75658;BMP280;64255;49.892;17.884;2023-02-16T01:08:18;99602.59;;;0.23
75658;BMP280;64255;49.892;17.884;2023-02-16T01:10:48;99602.19;;;0.21
75658;BMP280;64255;49.892;17.884;2023-02-16T01:13:16;99587.91;;;0.22
75658;BMP280;64255;49.892;17.884;2023-02-16T01:15:43;99593.91;;;0.19
75658;BMP280;64255;49.892;17.884;2023-02-16T01:18:18;99589.44;;;0.23
75658;BMP280;64255;49.892;17.884;2023-02-16T01:20:46;99607.06;;;0.19
75658;BMP280;64255;49.892;17.884;2023-02-16T01:23:14;99603.31;;;0.20
75658;BMP280;64255;49.892;17.884;2023-02-16T01:25:41;99592.38;;;0.18
75658;BMP280;64255;49.892;17.884;2023-02-16T01:28:23;99599.19;;;0.22
75658;BMP280;64255;49.892;17.884;2023-02-16T01:30:52;99588.47;;;0.04
75658;BMP280;64255;49.892;17.884;2023-02-16T01:33:20;99586.00;;;0.19
75658;BMP280;64255;49.892;17.884;2023-02-16T01:35:49;99584.44;;;0.14
75658;BMP280;64255;49.892;17.884;2023-02-16T01:38:25;99572.44;;;0.17
75658;BMP280;64255;49.892;17.884;2023-02-16T01:44:22;99582.56;;;0.14
75658;BMP280;64255;49.892;17.884;2023-02-16T01:49:52;99575.78;;;0.13
75658;BMP280;64255;49.892;17.884;2023-02-16T01:52:33;99585.19;;;0.14
75658;BMP280;64255;49.892;17.884;2023-02-16T01:55:21;99578.03;;;0.11
75658;BMP280;64255;49.892;17.884;2023-02-16T02:03:30;99558.06;;;0.10
75658;BMP280;64255;49.892;17.884;2023-02-16T02:05:59;99558.78;;;0.07
75658;BMP280;64255;49.892;17.884;2023-02-16T02:08:44;99544.84;;;0.07
75658;BMP280;64255;49.892;17.884;2023-02-16T02:11:24;99558.78;;;0.07
75658;BMP280;64255;49.892;17.884;2023-02-16T02:14:17;99558.44;;;0.12
75658;BMP280;64255;49.892;17.884;2023-02-16T02:17:02;99554.69;;;0.13
75658;BMP280;64255;49.892;17.884;2023-02-16T02:28:23;99560.63;;;0.03
75658;BMP280;64255;49.892;17.884;2023-02-16T02:40:17;99552.31;;;0.01
75658;BMP280;64255;49.892;17.884;2023-02-16T02:45:52;99557.56;;;0.01
75658;BMP280;64255;49.892;17.884;2023-02-16T02:48:20;99573.53;;;0.15
75658;BMP280;64255;49.892;17.884;2023-02-16T02:50:53;99576.88;;;0.12
75658;BMP280;64255;49.892;17.884;2023-02-16T02:53:23;99556.59;;;0.13
75658;BMP280;64255;49.892;17.884;2023-02-16T02:55:51;99575.41;;;0.11
75658;BMP280;64255;49.892;17.884;2023-02-16T02:58:22;99566.72;;;0.11
75658;BMP280;64255;49.892;17.884;2023-02-16T03:00:51;99573.88;;;0.10
75658;BMP280;64255;49.892;17.884;2023-02-16T03:03:35;99566.72;;;0.11
75658;BMP280;64255;49.892;17.884;2023-02-16T03:06:12;99576.81;;;0.05
75658;BMP280;64255;49.892;17.884;2023-02-16T03:08:45;99579.94;;;0.14
75658;BMP280;64255;49.892;17.884;2023-02-16T03:11:22;99571.63;;;0.12
75658;BMP280;64255;49.892;17.884;2023-02-16T03:17:02;99572.44;;;0.17
75658;BMP280;64255;49.892;17.884;2023-02-16T03:19:30;99565.28;;;0.17
75658;BMP280;64255;49.892;17.884;2023-02-16T03:21:59;99572.06;;;0.18
75658;BMP280;64255;49.892;17.884;2023-02-16T03:24:30;99557.72;;;0.15
75658;BMP280;64255;49.892;17.884;2023-02-16T03:26:59;99561.47;;;0.11
75658;BMP280;64255;49.892;17.884;2023-02-16T03:29:27;99549.88;;;0.19
75658;BMP280;64255;49.892;17.884;2023-02-16T03:31:56;99555.81;;;0.12
75658;BMP280;64255;49.892;17.884;2023-02-16T03:34:25;99550.22;;;0.14
75658;BMP280;64255;49.892;17.884;2023-02-16T03:36:57;99540.81;;;0.17
75658;BMP280;64255;49.892;17.884;2023-02-16T03:39:27;99553.25;;;0.16
75658;BMP280;64255;49.892;17.884;2023-02-16T03:41:56;99550.19;;;0.10
75658;BMP280;64255;49.892;17.884;2023-02-16T03:44:24;99536.19;;;0.06
75658;BMP280;64255;49.892;17.884;2023-02-16T03:46:51;99553.97;;;0.13
75658;BMP280;64255;49.892;17.884;2023-02-16T03:49:19;99541.19;;;0.15
75658;BMP280;64255;49.892;17.884;2023-02-16T03:51:47;99541.63;;;0.21
75658;BMP280;64255;49.892;17.884;2023-02-16T03:54:13;99534.41;;;0.14
75658;BMP280;64255;49.892;17.884;2023-02-16T03:56:41;99536.66;;;0.15
75658;BMP280;64255;49.892;17.884;2023-02-16T03:59:08;99555.53;;;0.21
75658;BMP280;64255;49.892;17.884;2023-02-16T04:01:35;99545.72;;;0.18
75658;BMP280;64255;49.892;17.884;2023-02-16T04:04:02;99536.66;;;0.15
75658;BMP280;64255;49.892;17.884;2023-02-16T04:06:30;99539.69;;;0.18
75658;BMP280;64255;49.892;17.884;2023-02-16T04:08:57;99532.91;;;0.17
75658;BMP280;64255;49.892;17.884;2023-02-16T04:11:24;99537.94;;;0.29
75658;BMP280;64255;49.892;17.884;2023-02-16T04:13:51;99532.19;;;0.20
75658;BMP280;64255;49.892;17.884;2023-02-16T04:16:19;99539.03;;;0.24
75658;BMP280;64255;49.892;17.884;2023-02-16T04:18:46;99531.88;;;0.25
75658;BMP280;64255;49.892;17.884;2023-02-16T04:21:14;99518.69;;;0.25
75658;BMP280;64255;49.892;17.884;2023-02-16T04:23:41;99518.31;;;0.23
75658;BMP280;64255;49.892;17.884;2023-02-16T04:26:09;99527.75;;;0.27
75658;BMP280;64255;49.892;17.884;2023-02-16T04:28:36;99525.47;;;0.26
75658;BMP280;64255;49.892;17.884;2023-02-16T04:31:04;99522.47;;;0.24
75658;BMP280;64255;49.892;17.884;2023-02-16T04:33:31;99530.03;;;0.29
75658;BMP280;64255;49.892;17.884;2023-02-16T04:35:58;99517.63;;;0.33
75658;BMP280;64255;49.892;17.884;2023-02-16T04:38:25;99512.00;;;0.31
75658;BMP280;64255;49.892;17.884;2023-02-16T04:40:52;99514.94;;;0.26
75658;BMP280;64255;49.892;17.884;2023-02-16T04:43:19;99511.56;;;0.25
75658;BMP280;64255;49.892;17.884;2023-02-16T04:45:47;99511.97;;;0.27
75658;BMP280;64255;49.892;17.884;2023-02-16T04:48:14;99521.28;;;0.18
75658;BMP280;64255;49.892;17.884;2023-02-16T04:50:41;99514.44;;;0.13
75658;BMP280;64255;49.892;17.884;2023-02-16T04:53:09;99513.81;;;0.27
75658;BMP280;64255;49.892;17.884;2023-02-16T04:55:36;99514.59;;;0.27
75658;BMP280;64255;49.892;17.884;2023-02-16T04:58:03;99534.19;;;0.30
75658;BMP280;64255;49.892;17.884;2023-02-16T05:00:31;99535.66;;;0.27
75658;BMP280;64255;49.892;17.884;2023-02-16T05:02:58;99533.44;;;0.33
75658;BMP280;64255;49.892;17.884;2023-02-16T05:05:25;99518.69;;;0.25
75658;BMP280;64255;49.892;17.884;2023-02-16T05:07:52;99510.88;;;0.32
75658;BMP280;64255;49.892;17.884;2023-02-16T05:10:20;99507.44;;;0.28
75658;BMP280;64255;49.892;17.884;2023-02-16T05:12:47;99507.47;;;0.32
75658;BMP280;64255;49.892;17.884;2023-02-16T05:15:14;99509.34;;;0.31
75658;BMP280;64255;49.892;17.884;2023-02-16T05:17:42;99513.50;;;0.36
75658;BMP280;64255;49.892;17.884;2023-02-16T05:20:10;99522.53;;;0.35
75658;BMP280;64255;49.892;17.884;2023-02-16T05:22:38;99526.66;;;0.36
75658;BMP280;64255;49.892;17.884;2023-02-16T05:25:07;99521.41;;;0.36
75658;BMP280;64255;49.892;17.884;2023-02-16T05:27:34;99521.03;;;0.37
75658;BMP280;64255;49.892;17.884;2023-02-16T05:30:02;99524.03;;;0.36
75658;BMP280;64255;49.892;17.884;2023-02-16T05:32:28;99519.56;;;0.40
75658;BMP280;64255;49.892;17.884;2023-02-16T05:34:55;99529.34;;;0.39
75658;BMP280;64255;49.892;17.884;2023-02-16T05:37:22;99521.09;;;0.41
75658;BMP280;64255;49.892;17.884;2023-02-16T05:39:50;99505.63;;;0.39
75658;BMP280;64255;49.892;17.884;2023-02-16T05:42:17;99505.66;;;0.43
75658;BMP280;64255;49.892;17.884;2023-02-16T05:44:44;99513.94;;;0.41
75658;BMP280;64255;49.892;17.884;2023-02-16T05:47:11;99512.81;;;0.42
75658;BMP280;64255;49.892;17.884;2023-02-16T05:49:39;99529.00;;;0.41
75658;BMP280;64255;49.892;17.884;2023-02-16T05:52:06;99522.19;;;0.40
75658;BMP280;64255;49.892;17.884;2023-02-16T05:54:34;99518.44;;;0.41
75658;BMP280;64255;49.892;17.884;2023-02-16T05:57:01;99521.09;;;0.41
75658;BMP280;64255;49.892;17.884;2023-02-16T05:59:29;99520.00;;;0.45
75658;BMP280;64255;49.892;17.884;2023-02-16T06:01:55;99527.88;;;0.42
75658;BMP280;64255;49.892;17.884;2023-02-16T06:04:23;99526.38;;;0.44
75658;BMP280;64255;49.892;17.884;2023-02-16T06:06:50;99536.19;;;0.48
75658;BMP280;64255;49.892;17.884;2023-02-16T06:09:18;99522.53;;;0.31
75658;BMP280;64255;49.892;17.884;2023-02-16T06:11:44;99514.25;;;0.36
75658;BMP280;64255;49.892;17.884;2023-02-16T06:14:16;99515.06;;;0.44
75658;BMP280;64255;49.892;17.884;2023-02-16T06:16:48;99492.47;;;0.43
75658;BMP280;64255;49.892;17.884;2023-02-16T06:19:18;99511.34;;;0.49
75658;BMP280;64255;49.892;17.884;2023-02-16T06:21:45;99533.19;;;0.49
75658;BMP280;64255;49.892;17.884;2023-02-16T06:24:14;99536.63;;;0.53
75658;BMP280;64255;49.892;17.884;2023-02-16T06:26:41;99540.41;;;0.56
75658;BMP280;64255;49.892;17.884;2023-02-16T06:29:09;99541.16;;;0.56
75658;BMP280;64255;49.892;17.884;2023-02-16T06:31:36;99548.00;;;0.65
75658;BMP280;64255;49.892;17.884;2023-02-16T06:34:05;99537.91;;;0.74
75658;BMP280;64255;49.892;17.884;2023-02-16T06:36:32;99530.34;;;0.72
75658;BMP280;64255;49.892;17.884;2023-02-16T06:39:00;99527.72;;;0.72
75658;BMP280;64255;49.892;17.884;2023-02-16T06:41:27;99522.50;;;0.76
75658;BMP280;64255;49.892;17.884;2023-02-16T06:43:54;99527.81;;;0.83
75658;BMP280;64255;49.892;17.884;2023-02-16T06:46:22;99527.44;;;0.85
75658;BMP280;64255;49.892;17.884;2023-02-16T06:48:49;99527.50;;;0.96
75658;BMP280;64255;49.892;17.884;2023-02-16T06:51:18;99543.97;;;1.45
75658;BMP280;64255;49.892;17.884;2023-02-16T06:53:46;99538.50;;;1.08
75658;BMP280;64255;49.892;17.884;2023-02-16T06:56:13;99533.78;;;1.32
75658;BMP280;64255;49.892;17.884;2023-02-16T06:58:41;99526.59;;;1.26
75658;BMP280;64255;49.892;17.884;2023-02-16T07:01:08;99540.31;;;1.67
75658;BMP280;64255;49.892;17.884;2023-02-16T07:03:35;99530.41;;;1.43
75658;BMP280;64255;49.892;17.884;2023-02-16T07:06:03;99551.22;;;1.66
75658;BMP280;64255;49.892;17.884;2023-02-16T07:08:30;99544.53;;;2.01
75658;BMP280;64255;49.892;17.884;2023-02-16T07:10:58;99548.19;;;1.57
75658;BMP280;64255;49.892;17.884;2023-02-16T07:13:24;99549.78;;;1.83
75658;BMP280;64255;49.892;17.884;2023-02-16T07:15:52;99563.41;;;1.92
75658;BMP280;64255;49.892;17.884;2023-02-16T07:18:19;99550.19;;;1.96
75658;BMP280;64255;49.892;17.884;2023-02-16T07:20:47;99560.03;;;2.06
75658;BMP280;64255;49.892;17.884;2023-02-16T07:23:14;99554.78;;;2.21
75658;BMP280;64255;49.892;17.884;2023-02-16T07:25:41;99553.94;;;1.88
75658;BMP280;64255;49.892;17.884;2023-02-16T07:28:09;99551.31;;;1.88
75658;BMP280;64255;49.892;17.884;2023-02-16T07:30:35;99546.88;;;2.64
75658;BMP280;64255;49.892;17.884;2023-02-16T07:33:03;99550.63;;;2.23
75658;BMP280;64255;49.892;17.884;2023-02-16T07:35:30;99548.69;;;2.06
75658;BMP280;64255;49.892;17.884;2023-02-16T07:37:58;99546.09;;;2.35
75658;BMP280;64255;49.892;17.884;2023-02-16T07:40:25;99546.50;;;2.58
75658;BMP280;64255;49.892;17.884;2023-02-16T07:42:52;99556.69;;;2.82
75658;BMP280;64255;49.892;17.884;2023-02-16T07:45:19;99548.38;;;2.40
75658;BMP280;64255;49.892;17.884;2023-02-16T07:47:47;99542.69;;;2.92
75658;BMP280;64255;49.892;17.884;2023-02-16T07:50:14;99541.94;;;2.55
75658;BMP280;64255;49.892;17.884;2023-02-16T07:52:41;99550.16;;;3.19
75658;BMP280;64255;49.892;17.884;2023-02-16T07:55:10;99536.25;;;2.71
75658;BMP280;64255;49.892;17.884;2023-02-16T07:57:38;99541.19;;;2.58
75658;BMP280;64255;49.892;17.884;2023-02-16T08:00:06;99549.13;;;2.87
75658;BMP280;64255;49.892;17.884;2023-02-16T08:02:35;99544.94;;;2.93
75658;BMP280;64255;49.892;17.884;2023-02-16T08:05:02;99537.06;;;2.54
75658;BMP280;64255;49.892;17.884;2023-02-16T08:07:29;99543.09;;;2.61
75658;BMP280;64255;49.892;17.884;2023-02-16T08:09:57;99534.78;;;2.63
75658;BMP280;64255;49.892;17.884;2023-02-16T08:12:24;99544.13;;;3.04
75658;BMP280;64255;49.892;17.884;2023-02-16T08:14:52;99552.94;;;2.68
75658;BMP280;64255;49.892;17.884;2023-02-16T08:17:19;99548.00;;;2.70
75658;BMP280;64255;49.892;17.884;2023-02-16T08:19:46;99554.78;;;2.86
75658;BMP280;64255;49.892;17.884;2023-02-16T08:22:14;99547.97;;;2.88
75658;BMP280;64255;49.892;17.884;2023-02-16T08:24:43;99541.75;;;3.42
75658;BMP280;64255;49.892;17.884;2023-02-16T08:27:10;99554.97;;;3.46
75658;BMP280;64255;49.892;17.884;2023-02-16T08:29:38;99555.25;;;3.69
75658;BMP280;64255;49.892;17.884;2023-02-16T08:32:05;99556.44;;;3.61
75658;BMP280;64255;49.892;17.884;2023-02-16T08:34:33;99561.75;;;3.57
75658;BMP280;64255;49.892;17.884;2023-02-16T08:37:00;99561.06;;;3.46
75658;BMP280;64255;49.892;17.884;2023-02-16T08:39:30;99553.47;;;3.52
75658;BMP280;64255;49.892;17.884;2023-02-16T08:42:00;99562.09;;;3.63
75658;BMP280;64255;49.892;17.884;2023-02-16T08:44:27;99560.00;;;4.00
75658;BMP280;64255;49.892;17.884;2023-02-16T08:46:58;99558.19;;;3.89
75658;BMP280;64255;49.892;17.884;2023-02-16T08:49:26;99567.91;;;4.60
75658;BMP280;64255;49.892;17.884;2023-02-16T08:51:57;99566.16;;;5.18
75658;BMP280;64255;49.892;17.884;2023-02-16T08:54:28;99578.97;;;4.89
75658;BMP280;64255;49.892;17.884;2023-02-16T08:56:59;99553.75;;;4.70
75658;BMP280;64255;49.892;17.884;2023-02-16T08:59:26;99562.59;;;4.60
75658;BMP280;64255;49.892;17.884;2023-02-16T09:01:53;99566.72;;;5.37
75658;BMP280;64255;49.892;17.884;2023-02-16T09:04:21;99570.16;;;4.99
75658;BMP280;64255;49.892;17.884;2023-02-16T09:06:48;99572.66;;;4.79
75658;BMP280;64255;49.892;17.884;2023-02-16T09:09:16;99577.47;;;4.46
75658;BMP280;64255;49.892;17.884;2023-02-16T09:11:44;99570.63;;;4.52
75658;BMP280;64255;49.892;17.884;2023-02-16T09:14:13;99560.88;;;4.35
75658;BMP280;64255;49.892;17.884;2023-02-16T09:16:41;99572.66;;;4.30
75658;BMP280;64255;49.892;17.884;2023-02-16T09:19:08;99566.03;;;4.04
75658;BMP280;64255;49.892;17.884;2023-02-16T09:21:35;99577.59;;;4.32
75658;BMP280;64255;49.892;17.884;2023-02-16T09:24:03;99574.34;;;4.06
75658;BMP280;64255;49.892;17.884;2023-02-16T09:26:35;99577.09;;;3.92
75658;BMP280;64255;49.892;17.884;2023-02-16T09:29:03;99586.47;;;4.07
75658;BMP280;64255;49.892;17.884;2023-02-16T09:31:35;99582.38;;;3.95
75658;BMP280;64255;49.892;17.884;2023-02-16T09:34:19;99568.66;;;4.07
75658;BMP280;64255;49.892;17.884;2023-02-16T09:36:46;99566.66;;;4.26
75658;BMP280;64255;49.892;17.884;2023-02-16T09:39:15;99563.41;;;4.49
75658;BMP280;64255;49.892;17.884;2023-02-16T09:42:24;99548.09;;;4.72
75658;BMP280;64255;49.892;17.884;2023-02-16T09:45:12;99550.50;;;4.55
75658;BMP280;64255;49.892;17.884;2023-02-16T09:47:47;99552.13;;;4.83
75658;BMP280;64255;49.892;17.884;2023-02-16T09:50:31;99557.22;;;4.67
75658;BMP280;64255;49.892;17.884;2023-02-16T09:53:18;99566.25;;;4.73
75658;BMP280;64255;49.892;17.884;2023-02-16T09:56:58;99561.06;;;5.00
75658;BMP280;64255;49.892;17.884;2023-02-16T09:59:04;99556.97;;;5.58
75658;BMP280;64255;49.892;17.884;2023-02-16T10:01:50;99560.25;;;5.04
75658;BMP280;64255;49.892;17.884;2023-02-16T10:04:48;99553.63;;;5.19
75658;BMP280;64255;49.892;17.884;2023-02-16T10:10:18;99577.28;;;5.06
75658;BMP280;64255;49.892;17.884;2023-02-16T10:13:01;99569.94;;;4.83
75658;BMP280;64255;49.892;17.884;2023-02-16T10:15:32;99567.16;;;4.59
75658;BMP280;64255;49.892;17.884;2023-02-16T10:18:27;99566.66;;;4.72
75658;BMP280;64255;49.892;17.884;2023-02-16T10:21:01;99552.38;;;4.58
75658;BMP280;64255;49.892;17.884;2023-02-16T10:28:48;99557.19;;;4.70
75658;BMP280;64255;49.892;17.884;2023-02-16T10:31:38;99561.81;;;4.63
75658;BMP280;64255;49.892;17.884;2023-02-16T10:34:30;99543.66;;;4.58
75658;BMP280;64255;49.892;17.884;2023-02-16T10:48:17;99512.22;;;4.11
75658;BMP280;64255;49.892;17.884;2023-02-16T10:51:01;99512.13;;;4.25
75658;BMP280;64255;49.892;17.884;2023-02-16T10:58:53;99509.97;;;4.51
75658;BMP280;64255;49.892;17.884;2023-02-16T11:01:53;99501.31;;;4.47
75658;BMP280;64255;49.892;17.884;2023-02-16T11:04:39;99497.13;;;4.49
75658;BMP280;64255;49.892;17.884;2023-02-16T11:07:14;99494.84;;;4.51
75658;BMP280;64255;49.892;17.884;2023-02-16T11:09:45;99496.91;;;4.71
75658;BMP280;64255;49.892;17.884;2023-02-16T11:12:35;99490.53;;;4.65
75658;BMP280;64255;49.892;17.884;2023-02-16T11:18:42;99497.84;;;4.92
75658;BMP280;64255;49.892;17.884;2023-02-16T11:21:10;99501.72;;;5.18
75658;BMP280;64255;49.892;17.884;2023-02-16T11:23:43;99493.53;;;5.01
75658;BMP280;64255;49.892;17.884;2023-02-16T11:28:45;99492.34;;;5.10
75658;BMP280;64255;49.892;17.884;2023-02-16T11:31:37;99491.78;;;5.22
75658;BMP280;64255;49.892;17.884;2023-02-16T11:34:45;99471.34;;;5.19
75658;BMP280;64255;49.892;17.884;2023-02-16T11:37:33;99472.06;;;5.20
75658;BMP280;64255;49.892;17.884;2023-02-16T11:40:26;99464.78;;;5.00
75658;BMP280;64255;49.892;17.884;2023-02-16T11:42:57;99468.81;;;5.39
75658;BMP280;64255;49.892;17.884;2023-02-16T11:45:35;99465.03;;;5.37
75658;BMP280;64255;49.892;17.884;2023-02-16T11:48:13;99468.91;;;5.32
75658;BMP280;64255;49.892;17.884;2023-02-16T11:51:07;99465.56;;;5.28
75658;BMP280;64255;49.892;17.884;2023-02-16T11:53:40;99458.63;;;5.34
75658;BMP280;64255;49.892;17.884;2023-02-16T11:56:21;99458.13;;;5.15
75658;BMP280;64255;49.892;17.884;2023-02-16T11:59:17;99447.97;;;5.07
75658;BMP280;64255;49.892;17.884;2023-02-16T12:07:43;99452.56;;;5.85
75658;BMP280;64255;49.892;17.884;2023-02-16T12:15:52;99433.66;;;6.03
75658;BMP280;64255;49.892;17.884;2023-02-16T12:18:53;99427.72;;;6.39
75658;BMP280;64255;49.892;17.884;2023-02-16T12:21:41;99421.38;;;6.12
75658;BMP280;64255;49.892;17.884;2023-02-16T12:24:26;99431.50;;;6.18
75658;BMP280;64255;49.892;17.884;2023-02-16T12:38:36;99416.09;;;6.29
75658;BMP280;64255;49.892;17.884;2023-02-16T12:44:49;99401.91;;;6.56
75658;BMP280;64255;49.892;17.884;2023-02-16T12:47:33;99402.72;;;6.53
75658;BMP280;64255;49.892;17.884;2023-02-16T12:50:20;99401.31;;;6.85
75658;BMP280;64255;49.892;17.884;2023-02-16T12:56:37;99391.59;;;6.58
75658;BMP280;64255;49.892;17.884;2023-02-16T13:02:37;99376.63;;;7.34
75658;BMP280;64255;49.892;17.884;2023-02-16T13:05:31;99374.72;;;7.18
75658;BMP280;64255;49.892;17.884;2023-02-16T13:08:40;99366.75;;;7.18
75658;BMP280;64255;49.892;17.884;2023-02-16T13:11:24;99368.88;;;7.39
75658;BMP280;64255;49.892;17.884;2023-02-16T13:14:00;99360.72;;;7.14
75658;BMP280;64255;49.892;17.884;2023-02-16T13:19:22;99358.31;;;6.50
75658;BMP280;64255;49.892;17.884;2023-02-16T13:28:00;99351.41;;;6.89
75658;BMP280;64255;49.892;17.884;2023-02-16T13:40:21;99343.19;;;6.46
75658;BMP280;64255;49.892;17.884;2023-02-16T13:43:59;99351.03;;;6.34
75658;BMP280;64255;49.892;17.884;2023-02-16T13:45:56;99352.59;;;6.31
75658;BMP280;64255;49.892;17.884;2023-02-16T13:49:00;99343.69;;;6.41
75658;BMP280;64255;49.892;17.884;2023-02-16T13:51:42;99346.28;;;6.61
75658;BMP280;64255;49.892;17.884;2023-02-16T13:54:41;99341.25;;;6.84
75658;BMP280;64255;49.892;17.884;2023-02-16T13:57:14;99341.56;;;6.86
75658;BMP280;64255;49.892;17.884;2023-02-16T14:00:02;99347.41;;;6.97
75658;BMP280;64255;49.892;17.884;2023-02-16T14:03:00;99345.06;;;6.66
75658;BMP280;64255;49.892;17.884;2023-02-16T14:05:33;99340.41;;;6.87
75658;BMP280;64255;49.892;17.884;2023-02-16T14:08:20;99333.44;;;6.93
75658;BMP280;64255;49.892;17.884;2023-02-16T14:21:43;99347.72;;;6.66
75658;BMP280;64255;49.892;17.884;2023-02-16T14:27:01;99344.28;;;6.49
75658;BMP280;64255;49.892;17.884;2023-02-16T14:29:55;99340.66;;;6.39
75658;BMP280;64255;49.892;17.884;2023-02-16T14:32:30;99335.78;;;6.38
75658;BMP280;64255;49.892;17.884;2023-02-16T14:35:20;99347.81;;;6.42
75658;BMP280;64255;49.892;17.884;2023-02-16T14:40:55;99356.44;;;6.10
75658;BMP280;64255;49.892;17.884;2023-02-16T14:49:50;99364.66;;;5.75
75658;BMP280;64255;49.892;17.884;2023-02-16T14:55:59;99367.06;;;6.30
75658;BMP280;64255;49.892;17.884;2023-02-16T14:58:54;99366.41;;;6.06
75658;BMP280;64255;49.892;17.884;2023-02-16T15:01:24;99359.25;;;6.23
75658;BMP280;64255;49.892;17.884;2023-02-16T15:03:54;99366.34;;;6.09
75658;BMP280;64255;49.892;17.884;2023-02-16T15:06:31;99366.41;;;6.06
75658;BMP280;64255;49.892;17.884;2023-02-16T15:09:12;99360.94;;;6.13
75658;BMP280;64255;49.892;17.884;2023-02-16T15:12:01;99357.53;;;5.92
75658;BMP280;64255;49.892;17.884;2023-02-16T15:14:49;99355.53;;;5.76
75658;BMP280;64255;49.892;17.884;2023-02-16T15:17:38;99359.44;;;5.68
75658;BMP280;64255;49.892;17.884;2023-02-16T15:20:26;99357.34;;;5.56
75658;BMP280;64255;49.892;17.884;2023-02-16T15:22:57;99349.75;;;5.34
75658;BMP280;64255;49.892;17.884;2023-02-16T15:25:38;99352.81;;;5.32
75658;BMP280;64255;49.892;17.884;2023-02-16T15:28:27;99352.47;;;5.30
75658;BMP280;64255;49.892;17.884;2023-02-16T15:31:02;99345.78;;;5.18
75658;BMP280;64255;49.892;17.884;2023-02-16T15:33:38;99350.78;;;5.16
75658;BMP280;64255;49.892;17.884;2023-02-16T15:36:10;99338.41;;;5.06
75658;BMP280;64255;49.892;17.884;2023-02-16T15:39:03;99333.94;;;4.99
75658;BMP280;64255;49.892;17.884;2023-02-16T15:41:34;99337.69;;;5.02
75658;BMP280;64255;49.892;17.884;2023-02-16T15:44:05;99321.94;;;4.91
75658;BMP280;64255;49.892;17.884;2023-02-16T15:46:40;99323.09;;;4.90
75658;BMP280;64255;49.892;17.884;2023-02-16T15:49:13;99322.78;;;4.84
75658;BMP280;64255;49.892;17.884;2023-02-16T15:51:41;99324.69;;;4.84
75658;BMP280;64255;49.892;17.884;2023-02-16T15:54:29;99327.00;;;4.82
75658;BMP280;64255;49.892;17.884;2023-02-16T15:59:44;99335.06;;;4.44
75658;BMP280;64255;49.892;17.884;2023-02-16T16:05:20;99342.66;;;4.07
75658;BMP280;64255;49.892;17.884;2023-02-16T16:07:49;99344.03;;;4.19
75658;BMP280;64255;49.892;17.884;2023-02-16T16:10:25;99343.69;;;4.51
75658;BMP280;64255;49.892;17.884;2023-02-16T16:13:00;99339.94;;;4.45
75658;BMP280;64255;49.892;17.884;2023-02-16T16:15:34;99341.69;;;4.25
75658;BMP280;64255;49.892;17.884;2023-02-16T16:18:03;99338.25;;;4.28
75658;BMP280;64255;49.892;17.884;2023-02-16T16:20:38;99331.84;;;4.25
75658;BMP280;64255;49.892;17.884;2023-02-16T16:23:24;99339.84;;;4.21
75658;BMP280;64255;49.892;17.884;2023-02-16T16:25:54;99343.72;;;4.13
75658;BMP280;64255;49.892;17.884;2023-02-16T16:34:08;99342.78;;;4.31
75658;BMP280;64255;49.892;17.884;2023-02-16T16:36:55;99340.63;;;4.22
75658;BMP280;64255;49.892;17.884;2023-02-16T16:39:28;99337.69;;;4.09
75658;BMP280;64255;49.892;17.884;2023-02-16T16:42:20;99342.91;;;4.20
75658;BMP280;64255;49.892;17.884;2023-02-16T16:45:05;99342.56;;;4.14
75658;BMP280;64255;49.892;17.884;2023-02-16T16:47:40;99336.13;;;4.15
75658;BMP280;64255;49.892;17.884;2023-02-16T16:52:44;99348.31;;;4.05
75658;BMP280;64255;49.892;17.884;2023-02-16T16:55:30;99345.63;;;4.13
75658;BMP280;64255;49.892;17.884;2023-02-16T16:58:05;99340.34;;;4.13
75658;BMP280;64255;49.892;17.884;2023-02-16T17:00:36;99341.59;;;4.01
75658;BMP280;64255;49.892;17.884;2023-02-16T17:03:07;99336.50;;;3.79
75658;BMP280;64255;49.892;17.884;2023-02-16T17:05:35;99340.94;;;3.89
75658;BMP280;64255;49.892;17.884;2023-02-16T17:08:02;99345.31;;;3.65
75658;BMP280;64255;49.892;17.884;2023-02-16T17:10:30;99355.84;;;3.72
75658;BMP280;64255;49.892;17.884;2023-02-16T17:12:59;99346.44;;;3.64
75658;BMP280;64255;49.892;17.884;2023-02-16T17:15:41;99352.59;;;3.50
75658;BMP280;64255;49.892;17.884;2023-02-16T17:18:16;99350.13;;;3.78
75658;BMP280;64255;49.892;17.884;2023-02-16T17:20:45;99345.31;;;3.62
75658;BMP280;64255;49.892;17.884;2023-02-16T17:23:15;99342.56;;;3.76
75658;BMP280;64255;49.892;17.884;2023-02-16T17:25:43;99336.28;;;3.55